sensor_id;sensor_type;location;lat;lon;timestamp;P1;durP1;ratioP1;P2;durP2;ratioP2
54921;SDS011;40824;45.116;21.296;2023-02-19T00:01:32;53.50;;;35.50;;
54921;SDS011;40824;45.116;21.296;2023-02-19T00:04:00;58.90;;;36.47;;
54921;SDS011;40824;45.116;21.296;2023-02-19T00:06:27;57.28;;;36.38;;
54921;SDS011;40824;45.116;21.296;2023-02-19T00:08:53;53.83;;;34.47;;
54921;SDS011;40824;45.116;21.296;2023-02-19T00:11:23;51.78;;;34.88;;
54921;SDS011;40824;45.116;21.296;2023-02-19T00:13:50;54.53;;;36.67;;
54921;SDS011;40824;45.116;21.296;2023-02-19T00:16:20;53.50;;;36.88;;
54921;SDS011;40824;45.116;21.296;2023-02-19T00:18:47;55.10;;;35.83;;
54921;SDS011;40824;45.116;21.296;2023-02-19T00:21:13;53.35;;;37.35;;
54921;SDS011;40824;45.116;21.296;2023-02-19T00:23:39;59.05;;;37.72;;
54921;SDS011;40824;45.116;21.296;2023-02-19T00:26:09;57.60;;;36.40;;
54921;SDS011;40824;45.116;21.296;2023-02-19T00:28:35;56.75;;;37.13;;
54921;SDS011;40824;45.116;21.296;2023-02-19T00:31:08;62.72;;;40.03;;
54921;SDS011;40824;45.116;21.296;2023-02-19T00:33:36;58.88;;;37.25;;
54921;SDS011;40824;45.116;21.296;2023-02-19T00:36:02;60.03;;;38.13;;
54921;SDS011;40824;45.116;21.296;2023-02-19T00:38:29;55.95;;;37.58;;
54921;SDS011;40824;45.116;21.296;2023-02-19T00:40:55;55.50;;;38.70;;
54921;SDS011;40824;45.116;21.296;2023-02-19T00:43:24;58.80;;;36.60;;
54921;SDS011;40824;45.116;21.296;2023-02-19T00:45:50;56.38;;;38.45;;
54921;SDS011;40824;45.116;21.296;2023-02-19T00:48:16;64.47;;;38.97;;
54921;SDS011;40824;45.116;21.296;2023-02-19T00:50:42;54.30;;;36.60;;
54921;SDS011;40824;45.116;21.296;2023-02-19T00:53:08;61.42;;;39.15;;
54921;SDS011;40824;45.116;21.296;2023-02-19T00:55:35;63.13;;;39.33;;
54921;SDS011;40824;45.116;21.296;2023-02-19T00:58:01;59.88;;;40.05;;
54921;SDS011;40824;45.116;21.296;2023-02-19T01:00:27;57.00;;;36.60;;
54921;SDS011;40824;45.116;21.296;2023-02-19T01:02:54;55.00;;;36.90;;
54921;SDS011;40824;45.116;21.296;2023-02-19T01:05:20;54.60;;;37.38;;
54921;SDS011;40824;45.116;21.296;2023-02-19T01:07:46;54.25;;;36.03;;
54921;SDS011;40824;45.116;21.296;2023-02-19T01:10:12;63.30;;;38.15;;
54921;SDS011;40824;45.116;21.296;2023-02-19T01:12:38;57.03;;;37.22;;
54921;SDS011;40824;45.116;21.296;2023-02-19T01:15:04;58.90;;;39.15;;
54921;SDS011;40824;45.116;21.296;2023-02-19T01:17:30;58.22;;;39.30;;
54921;SDS011;40824;45.116;21.296;2023-02-19T01:19:56;54.30;;;35.80;;
54921;SDS011;40824;45.116;21.296;2023-02-19T01:22:23;57.10;;;37.45;;
54921;SDS011;40824;45.116;21.296;2023-02-19T01:24:49;55.08;;;38.25;;
54921;SDS011;40824;45.116;21.296;2023-02-19T01:27:15;59.78;;;39.63;;
54921;SDS011;40824;45.116;21.296;2023-02-19T01:29:41;59.80;;;38.95;;
54921;SDS011;40824;45.116;21.296;2023-02-19T01:32:07;54.50;;;38.58;;
54921;SDS011;40824;45.116;21.296;2023-02-19T01:34:34;51.80;;;36.42;;
54921;SDS011;40824;45.116;21.296;2023-02-19T01:37:00;53.20;;;35.58;;
54921;SDS011;40824;45.116;21.296;2023-02-19T01:39:27;54.17;;;35.70;;
54921;SDS011;40824;45.116;21.296;2023-02-19T01:41:53;49.22;;;34.45;;
54921;SDS011;40824;45.116;21.296;2023-02-19T01:46:45;52.33;;;35.13;;
54921;SDS011;40824;45.116;21.296;2023-02-19T01:51:42;48.75;;;35.33;;
54921;SDS011;40824;45.116;21.296;2023-02-19T01:54:10;47.10;;;33.70;;
54921;SDS011;40824;45.116;21.296;2023-02-19T01:56:38;52.28;;;35.38;;
54921;SDS011;40824;45.116;21.296;2023-02-19T01:59:06;47.05;;;34.25;;
54921;SDS011;40824;45.116;21.296;2023-02-19T02:01:33;45.45;;;31.48;;
54921;SDS011;40824;45.116;21.296;2023-02-19T02:03:59;47.55;;;32.28;;
54921;SDS011;40824;45.116;21.296;2023-02-19T02:06:29;46.15;;;31.50;;
54921;SDS011;40824;45.116;21.296;2023-02-19T02:08:57;42.05;;;29.90;;
54921;SDS011;40824;45.116;21.296;2023-02-19T02:11:49;42.05;;;29.42;;
54921;SDS011;40824;45.116;21.296;2023-02-19T02:14:19;45.10;;;30.50;;
54921;SDS011;40824;45.116;21.296;2023-02-19T02:22:46;42.60;;;29.63;;
54921;SDS011;40824;45.116;21.296;2023-02-19T02:32:18;50.78;;;33.47;;
54921;SDS011;40824;45.116;21.296;2023-02-19T02:34:56;47.47;;;31.50;;
54921;SDS011;40824;45.116;21.296;2023-02-19T02:37:24;45.92;;;31.92;;
54921;SDS011;40824;45.116;21.296;2023-02-19T02:39:50;44.28;;;30.98;;
54921;SDS011;40824;45.116;21.296;2023-02-19T02:42:17;41.83;;;29.75;;
54921;SDS011;40824;45.116;21.296;2023-02-19T02:44:55;49.78;;;31.60;;
54921;SDS011;40824;45.116;21.296;2023-02-19T02:47:46;40.20;;;28.58;;
54921;SDS011;40824;45.116;21.296;2023-02-19T02:50:16;39.38;;;28.45;;
54921;SDS011;40824;45.116;21.296;2023-02-19T02:52:43;36.42;;;27.13;;
54921;SDS011;40824;45.116;21.296;2023-02-19T02:55:29;41.33;;;28.30;;
54921;SDS011;40824;45.116;21.296;2023-02-19T02:57:56;42.22;;;29.42;;
54921;SDS011;40824;45.116;21.296;2023-02-19T03:00:22;42.60;;;29.00;;
54921;SDS011;40824;45.116;21.296;2023-02-19T03:02:49;40.83;;;27.88;;
54921;SDS011;40824;45.116;21.296;2023-02-19T03:05:18;40.58;;;28.98;;
54921;SDS011;40824;45.116;21.296;2023-02-19T03:10:40;42.72;;;28.98;;
54921;SDS011;40824;45.116;21.296;2023-02-19T03:13:08;44.22;;;29.10;;
54921;SDS011;40824;45.116;21.296;2023-02-19T03:15:55;40.65;;;29.15;;
54921;SDS011;40824;45.116;21.296;2023-02-19T03:18:41;42.78;;;29.80;;
54921;SDS011;40824;45.116;21.296;2023-02-19T03:21:26;56.38;;;30.08;;
54921;SDS011;40824;45.116;21.296;2023-02-19T03:23:53;42.78;;;28.75;;
54921;SDS011;40824;45.116;21.296;2023-02-19T03:26:39;43.70;;;29.77;;
54921;SDS011;40824;45.116;21.296;2023-02-19T03:29:06;40.10;;;28.17;;
54921;SDS011;40824;45.116;21.296;2023-02-19T03:31:48;42.28;;;29.10;;
54921;SDS011;40824;45.116;21.296;2023-02-19T03:34:19;41.47;;;29.02;;
54921;SDS011;40824;45.116;21.296;2023-02-19T03:36:50;41.88;;;29.90;;
54921;SDS011;40824;45.116;21.296;2023-02-19T03:39:19;40.60;;;28.13;;
54921;SDS011;40824;45.116;21.296;2023-02-19T03:44:17;45.10;;;29.98;;
54921;SDS011;40824;45.116;21.296;2023-02-19T03:46:55;43.53;;;29.33;;
54921;SDS011;40824;45.116;21.296;2023-02-19T03:52:16;42.17;;;30.20;;
54921;SDS011;40824;45.116;21.296;2023-02-19T03:54:50;46.22;;;32.17;;
54921;SDS011;40824;45.116;21.296;2023-02-19T03:59:57;46.75;;;32.72;;
54921;SDS011;40824;45.116;21.296;2023-02-19T04:04:55;43.40;;;30.83;;
54921;SDS011;40824;45.116;21.296;2023-02-19T04:07:24;41.88;;;28.92;;
54921;SDS011;40824;45.116;21.296;2023-02-19T04:09:51;41.17;;;28.70;;
54921;SDS011;40824;45.116;21.296;2023-02-19T04:12:18;42.35;;;31.02;;
54921;SDS011;40824;45.116;21.296;2023-02-19T04:14:51;48.33;;;36.20;;
54921;SDS011;40824;45.116;21.296;2023-02-19T04:17:19;49.40;;;39.17;;
54921;SDS011;40824;45.116;21.296;2023-02-19T04:19:46;43.60;;;31.55;;
54921;SDS011;40824;45.116;21.296;2023-02-19T04:22:14;43.22;;;31.08;;
54921;SDS011;40824;45.116;21.296;2023-02-19T04:24:48;39.47;;;28.65;;
54921;SDS011;40824;45.116;21.296;2023-02-19T04:27:15;40.10;;;28.13;;
54921;SDS011;40824;45.116;21.296;2023-02-19T04:29:41;39.15;;;29.20;;
54921;SDS011;40824;45.116;21.296;2023-02-19T04:32:11;45.40;;;34.30;;
54921;SDS011;40824;45.116;21.296;2023-02-19T04:34:37;46.78;;;30.73;;
54921;SDS011;40824;45.116;21.296;2023-02-19T04:37:04;53.75;;;37.72;;
54921;SDS011;40824;45.116;21.296;2023-02-19T04:39:30;73.72;;;54.05;;
54921;SDS011;40824;45.116;21.296;2023-02-19T04:41:56;48.33;;;36.17;;
54921;SDS011;40824;45.116;21.296;2023-02-19T04:44:22;42.03;;;29.70;;
54921;SDS011;40824;45.116;21.296;2023-02-19T04:46:48;38.72;;;27.33;;
54921;SDS011;40824;45.116;21.296;2023-02-19T04:49:14;43.97;;;29.20;;
54921;SDS011;40824;45.116;21.296;2023-02-19T04:51:40;41.05;;;28.20;;
54921;SDS011;40824;45.116;21.296;2023-02-19T04:54:06;39.97;;;28.52;;
54921;SDS011;40824;45.116;21.296;2023-02-19T04:56:33;46.72;;;31.70;;
54921;SDS011;40824;45.116;21.296;2023-02-19T04:58:59;42.67;;;29.70;;
54921;SDS011;40824;45.116;21.296;2023-02-19T05:01:25;49.08;;;34.10;;
54921;SDS011;40824;45.116;21.296;2023-02-19T05:03:51;46.20;;;31.35;;
54921;SDS011;40824;45.116;21.296;2023-02-19T05:06:17;39.35;;;27.77;;
54921;SDS011;40824;45.116;21.296;2023-02-19T05:08:43;42.58;;;28.17;;
54921;SDS011;40824;45.116;21.296;2023-02-19T05:11:10;42.03;;;29.52;;
54921;SDS011;40824;45.116;21.296;2023-02-19T05:13:37;46.80;;;30.42;;
54921;SDS011;40824;45.116;21.296;2023-02-19T05:16:04;52.60;;;34.75;;
54921;SDS011;40824;45.116;21.296;2023-02-19T05:18:31;46.90;;;30.80;;
54921;SDS011;40824;45.116;21.296;2023-02-19T05:20:58;39.75;;;28.67;;
54921;SDS011;40824;45.116;21.296;2023-02-19T05:23:24;40.28;;;28.42;;
54921;SDS011;40824;45.116;21.296;2023-02-19T05:25:51;41.95;;;28.58;;
54921;SDS011;40824;45.116;21.296;2023-02-19T05:28:17;44.42;;;29.58;;
54921;SDS011;40824;45.116;21.296;2023-02-19T05:30:44;42.60;;;32.60;;
54921;SDS011;40824;45.116;21.296;2023-02-19T05:33:11;54.33;;;38.42;;
54921;SDS011;40824;45.116;21.296;2023-02-19T05:35:42;55.55;;;42.72;;
54921;SDS011;40824;45.116;21.296;2023-02-19T05:38:08;43.38;;;33.30;;
54921;SDS011;40824;45.116;21.296;2023-02-19T05:40:34;38.65;;;28.92;;
54921;SDS011;40824;45.116;21.296;2023-02-19T05:43:01;34.15;;;25.40;;
54921;SDS011;40824;45.116;21.296;2023-02-19T05:45:27;35.90;;;26.50;;
54921;SDS011;40824;45.116;21.296;2023-02-19T05:47:53;35.65;;;26.27;;
54921;SDS011;40824;45.116;21.296;2023-02-19T05:50:19;37.17;;;27.08;;
54921;SDS011;40824;45.116;21.296;2023-02-19T05:52:47;36.28;;;25.67;;
54921;SDS011;40824;45.116;21.296;2023-02-19T05:55:13;34.83;;;25.45;;
54921;SDS011;40824;45.116;21.296;2023-02-19T05:57:40;34.85;;;26.00;;
54921;SDS011;40824;45.116;21.296;2023-02-19T06:00:07;43.10;;;31.35;;
54921;SDS011;40824;45.116;21.296;2023-02-19T06:02:34;38.42;;;27.38;;
54921;SDS011;40824;45.116;21.296;2023-02-19T06:05:03;32.05;;;25.30;;
54921;SDS011;40824;45.116;21.296;2023-02-19T06:07:30;39.03;;;28.42;;
54921;SDS011;40824;45.116;21.296;2023-02-19T06:09:58;34.20;;;26.13;;
54921;SDS011;40824;45.116;21.296;2023-02-19T06:12:24;38.05;;;27.92;;
54921;SDS011;40824;45.116;21.296;2023-02-19T06:14:50;32.00;;;24.77;;
54921;SDS011;40824;45.116;21.296;2023-02-19T06:17:16;31.63;;;24.45;;
54921;SDS011;40824;45.116;21.296;2023-02-19T06:19:42;29.05;;;23.83;;
54921;SDS011;40824;45.116;21.296;2023-02-19T06:22:09;28.15;;;23.30;;
54921;SDS011;40824;45.116;21.296;2023-02-19T06:24:35;31.92;;;22.33;;
54921;SDS011;40824;45.116;21.296;2023-02-19T06:27:04;27.77;;;22.67;;
54921;SDS011;40824;45.116;21.296;2023-02-19T06:29:30;29.10;;;23.40;;
54921;SDS011;40824;45.116;21.296;2023-02-19T06:31:57;29.10;;;22.45;;
54921;SDS011;40824;45.116;21.296;2023-02-19T06:34:23;31.92;;;24.65;;
54921;SDS011;40824;45.116;21.296;2023-02-19T06:36:49;28.75;;;24.13;;
54921;SDS011;40824;45.116;21.296;2023-02-19T06:39:15;27.77;;;22.73;;
54921;SDS011;40824;45.116;21.296;2023-02-19T06:41:41;28.67;;;23.05;;
54921;SDS011;40824;45.116;21.296;2023-02-19T06:44:08;30.10;;;23.10;;
54921;SDS011;40824;45.116;21.296;2023-02-19T06:46:34;29.02;;;23.33;;
54921;SDS011;40824;45.116;21.296;2023-02-19T06:49:02;27.42;;;21.83;;
54921;SDS011;40824;45.116;21.296;2023-02-19T06:51:28;29.67;;;22.33;;
54921;SDS011;40824;45.116;21.296;2023-02-19T06:53:56;28.05;;;22.13;;
54921;SDS011;40824;45.116;21.296;2023-02-19T06:56:30;27.10;;;21.45;;
54921;SDS011;40824;45.116;21.296;2023-02-19T06:58:57;29.80;;;23.45;;
54921;SDS011;40824;45.116;21.296;2023-02-19T07:01:27;31.30;;;23.55;;
54921;SDS011;40824;45.116;21.296;2023-02-19T07:03:53;30.90;;;23.35;;
54921;SDS011;40824;45.116;21.296;2023-02-19T07:06:20;33.72;;;25.05;;
54921;SDS011;40824;45.116;21.296;2023-02-19T07:08:46;34.08;;;26.00;;
54921;SDS011;40824;45.116;21.296;2023-02-19T07:11:12;33.72;;;24.55;;
54921;SDS011;40824;45.116;21.296;2023-02-19T07:13:42;32.63;;;25.42;;
54921;SDS011;40824;45.116;21.296;2023-02-19T07:16:08;30.80;;;23.45;;
54921;SDS011;40824;45.116;21.296;2023-02-19T07:18:35;34.03;;;24.90;;
54921;SDS011;40824;45.116;21.296;2023-02-19T07:21:05;29.65;;;22.55;;
54921;SDS011;40824;45.116;21.296;2023-02-19T07:23:32;31.90;;;24.75;;
54921;SDS011;40824;45.116;21.296;2023-02-19T07:25:58;31.42;;;23.33;;
54921;SDS011;40824;45.116;21.296;2023-02-19T07:28:24;33.78;;;23.25;;
54921;SDS011;40824;45.116;21.296;2023-02-19T07:30:50;36.83;;;26.58;;
54921;SDS011;40824;45.116;21.296;2023-02-19T07:33:16;35.35;;;26.90;;
54921;SDS011;40824;45.116;21.296;2023-02-19T07:35:48;32.65;;;23.58;;
54921;SDS011;40824;45.116;21.296;2023-02-19T07:38:15;30.27;;;23.13;;
54921;SDS011;40824;45.116;21.296;2023-02-19T07:40:48;28.23;;;21.08;;
54921;SDS011;40824;45.116;21.296;2023-02-19T07:43:14;28.63;;;21.65;;
54921;SDS011;40824;45.116;21.296;2023-02-19T07:45:41;31.88;;;21.63;;
54921;SDS011;40824;45.116;21.296;2023-02-19T07:48:07;27.05;;;21.70;;
54921;SDS011;40824;45.116;21.296;2023-02-19T07:50:32;25.80;;;19.40;;
54921;SDS011;40824;45.116;21.296;2023-02-19T07:52:58;28.40;;;20.02;;
54921;SDS011;40824;45.116;21.296;2023-02-19T07:55:24;29.02;;;20.40;;
54921;SDS011;40824;45.116;21.296;2023-02-19T07:57:49;23.13;;;19.50;;
54921;SDS011;40824;45.116;21.296;2023-02-19T08:00:15;25.73;;;20.95;;
54921;SDS011;40824;45.116;21.296;2023-02-19T08:02:43;26.23;;;20.80;;
54921;SDS011;40824;45.116;21.296;2023-02-19T08:05:35;32.10;;;24.33;;
54921;SDS011;40824;45.116;21.296;2023-02-19T08:08:04;31.90;;;24.95;;
54921;SDS011;40824;45.116;21.296;2023-02-19T08:10:31;32.00;;;24.20;;
54921;SDS011;40824;45.116;21.296;2023-02-19T08:15:44;32.65;;;22.17;;
54921;SDS011;40824;45.116;21.296;2023-02-19T08:18:11;24.15;;;21.17;;
54921;SDS011;40824;45.116;21.296;2023-02-19T08:20:38;50.60;;;33.25;;
54921;SDS011;40824;45.116;21.296;2023-02-19T08:23:05;27.27;;;21.80;;
54921;SDS011;40824;45.116;21.296;2023-02-19T08:25:31;25.40;;;19.98;;
54921;SDS011;40824;45.116;21.296;2023-02-19T08:27:57;31.92;;;19.40;;
54921;SDS011;40824;45.116;21.296;2023-02-19T08:30:32;27.55;;;20.80;;
54921;SDS011;40824;45.116;21.296;2023-02-19T08:32:59;25.85;;;20.42;;
54921;SDS011;40824;45.116;21.296;2023-02-19T08:35:25;26.75;;;20.10;;
54921;SDS011;40824;45.116;21.296;2023-02-19T08:37:57;27.33;;;22.70;;
54921;SDS011;40824;45.116;21.296;2023-02-19T08:40:26;26.45;;;22.20;;
54921;SDS011;40824;45.116;21.296;2023-02-19T08:42:52;26.63;;;21.38;;
54921;SDS011;40824;45.116;21.296;2023-02-19T08:45:18;30.20;;;22.52;;
54921;SDS011;40824;45.116;21.296;2023-02-19T08:47:45;28.80;;;24.13;;
54921;SDS011;40824;45.116;21.296;2023-02-19T08:50:13;27.60;;;24.23;;
54921;SDS011;40824;45.116;21.296;2023-02-19T08:52:39;30.52;;;25.60;;
54921;SDS011;40824;45.116;21.296;2023-02-19T08:55:09;40.85;;;28.33;;
54921;SDS011;40824;45.116;21.296;2023-02-19T08:57:35;36.20;;;29.67;;
54921;SDS011;40824;45.116;21.296;2023-02-19T09:00:02;40.75;;;30.15;;
54921;SDS011;40824;45.116;21.296;2023-02-19T09:02:28;36.10;;;28.88;;
54921;SDS011;40824;45.116;21.296;2023-02-19T09:04:55;36.20;;;30.60;;
54921;SDS011;40824;45.116;21.296;2023-02-19T09:07:21;32.67;;;28.30;;
54921;SDS011;40824;45.116;21.296;2023-02-19T09:09:47;34.00;;;28.83;;
54921;SDS011;40824;45.116;21.296;2023-02-19T09:12:13;30.58;;;25.85;;
54921;SDS011;40824;45.116;21.296;2023-02-19T09:14:40;28.98;;;25.17;;
54921;SDS011;40824;45.116;21.296;2023-02-19T09:17:06;29.13;;;26.02;;
54921;SDS011;40824;45.116;21.296;2023-02-19T09:19:33;28.00;;;24.63;;
54921;SDS011;40824;45.116;21.296;2023-02-19T09:21:59;25.35;;;22.67;;
54921;SDS011;40824;45.116;21.296;2023-02-19T09:24:25;26.77;;;23.95;;
54921;SDS011;40824;45.116;21.296;2023-02-19T09:26:51;26.92;;;23.17;;
54921;SDS011;40824;45.116;21.296;2023-02-19T09:29:18;25.23;;;22.50;;
54921;SDS011;40824;45.116;21.296;2023-02-19T09:31:44;22.73;;;20.40;;
54921;SDS011;40824;45.116;21.296;2023-02-19T09:34:10;23.55;;;21.05;;
54921;SDS011;40824;45.116;21.296;2023-02-19T09:36:37;24.63;;;21.85;;
54921;SDS011;40824;45.116;21.296;2023-02-19T09:39:03;29.88;;;24.33;;
54921;SDS011;40824;45.116;21.296;2023-02-19T09:41:35;24.95;;;21.35;;
54921;SDS011;40824;45.116;21.296;2023-02-19T09:44:03;24.55;;;22.05;;
54921;SDS011;40824;45.116;21.296;2023-02-19T09:46:30;31.38;;;24.90;;
54921;SDS011;40824;45.116;21.296;2023-02-19T09:49:01;29.83;;;24.90;;
54921;SDS011;40824;45.116;21.296;2023-02-19T09:51:28;25.23;;;22.08;;
54921;SDS011;40824;45.116;21.296;2023-02-19T09:53:55;24.98;;;21.75;;
54921;SDS011;40824;45.116;21.296;2023-02-19T09:56:23;28.13;;;23.17;;
54921;SDS011;40824;45.116;21.296;2023-02-19T09:58:51;26.10;;;21.70;;
54921;SDS011;40824;45.116;21.296;2023-02-19T10:01:18;24.40;;;19.27;;
54921;SDS011;40824;45.116;21.296;2023-02-19T10:03:46;23.70;;;21.00;;
54921;SDS011;40824;45.116;21.296;2023-02-19T10:06:21;23.85;;;21.35;;
54921;SDS011;40824;45.116;21.296;2023-02-19T10:08:49;32.85;;;26.90;;
54921;SDS011;40824;45.116;21.296;2023-02-19T10:11:15;23.38;;;17.92;;
54921;SDS011;40824;45.116;21.296;2023-02-19T10:13:46;19.50;;;17.40;;
54921;SDS011;40824;45.116;21.296;2023-02-19T10:16:18;26.15;;;22.98;;
54921;SDS011;40824;45.116;21.296;2023-02-19T10:18:45;21.25;;;18.77;;
54921;SDS011;40824;45.116;21.296;2023-02-19T10:21:18;22.17;;;19.52;;
54921;SDS011;40824;45.116;21.296;2023-02-19T10:23:45;23.95;;;19.60;;
54921;SDS011;40824;45.116;21.296;2023-02-19T10:26:11;20.83;;;18.55;;
54921;SDS011;40824;45.116;21.296;2023-02-19T10:28:37;24.20;;;20.98;;
54921;SDS011;40824;45.116;21.296;2023-02-19T10:31:05;21.75;;;19.38;;
54921;SDS011;40824;45.116;21.296;2023-02-19T10:33:32;22.60;;;20.02;;
54921;SDS011;40824;45.116;21.296;2023-02-19T10:36:02;26.17;;;23.42;;
54921;SDS011;40824;45.116;21.296;2023-02-19T10:40:59;22.10;;;18.90;;
54921;SDS011;40824;45.116;21.296;2023-02-19T10:43:30;27.10;;;19.60;;
54921;SDS011;40824;45.116;21.296;2023-02-19T10:45:58;22.60;;;17.98;;
54921;SDS011;40824;45.116;21.296;2023-02-19T10:48:30;21.10;;;18.38;;
54921;SDS011;40824;45.116;21.296;2023-02-19T10:51:01;23.05;;;19.45;;
54921;SDS011;40824;45.116;21.296;2023-02-19T10:53:40;19.55;;;17.05;;
54921;SDS011;40824;45.116;21.296;2023-02-19T10:56:08;17.35;;;15.00;;
54921;SDS011;40824;45.116;21.296;2023-02-19T10:58:34;16.77;;;14.27;;
54921;SDS011;40824;45.116;21.296;2023-02-19T11:01:34;16.17;;;13.90;;
54921;SDS011;40824;45.116;21.296;2023-02-19T11:06:39;14.95;;;13.10;;
54921;SDS011;40824;45.116;21.296;2023-02-19T11:09:05;16.20;;;14.55;;
54921;SDS011;40824;45.116;21.296;2023-02-19T11:13:58;18.17;;;15.60;;
54921;SDS011;40824;45.116;21.296;2023-02-19T11:16:42;20.25;;;17.25;;
54921;SDS011;40824;45.116;21.296;2023-02-19T11:21:47;29.70;;;22.30;;
54921;SDS011;40824;45.116;21.296;2023-02-19T11:26:51;19.17;;;16.58;;
54921;SDS011;40824;45.116;21.296;2023-02-19T11:29:19;19.20;;;16.38;;
54921;SDS011;40824;45.116;21.296;2023-02-19T11:31:49;19.70;;;17.63;;
54921;SDS011;40824;45.116;21.296;2023-02-19T11:36:45;18.60;;;16.02;;
54921;SDS011;40824;45.116;21.296;2023-02-19T11:52:35;19.83;;;15.93;;
54921;SDS011;40824;45.116;21.296;2023-02-19T12:02:33;17.42;;;15.35;;
54921;SDS011;40824;45.116;21.296;2023-02-19T12:24:10;16.85;;;14.27;;
54921;SDS011;40824;45.116;21.296;2023-02-19T12:26:27;21.15;;;16.45;;
54921;SDS011;40824;45.116;21.296;2023-02-19T12:29:03;19.38;;;14.70;;
54921;SDS011;40824;45.116;21.296;2023-02-19T12:46:55;18.73;;;14.52;;
54921;SDS011;40824;45.116;21.296;2023-02-19T12:51:58;18.60;;;14.27;;
54921;SDS011;40824;45.116;21.296;2023-02-19T12:54:37;21.48;;;15.60;;
54921;SDS011;40824;45.116;21.296;2023-02-19T12:57:14;17.83;;;15.00;;
54921;SDS011;40824;45.116;21.296;2023-02-19T12:59:54;17.95;;;14.70;;
54921;SDS011;40824;45.116;21.296;2023-02-19T13:04:53;16.75;;;14.10;;
54921;SDS011;40824;45.116;21.296;2023-02-19T13:07:27;17.45;;;13.80;;
54921;SDS011;40824;45.116;21.296;2023-02-19T13:09:59;18.13;;;14.68;;
54921;SDS011;40824;45.116;21.296;2023-02-19T13:12:29;16.17;;;13.70;;
54921;SDS011;40824;45.116;21.296;2023-02-19T13:15:01;16.60;;;13.30;;
54921;SDS011;40824;45.116;21.296;2023-02-19T13:17:36;20.83;;;14.95;;
54921;SDS011;40824;45.116;21.296;2023-02-19T13:20:37;18.98;;;15.00;;
54921;SDS011;40824;45.116;21.296;2023-02-19T13:23:00;19.38;;;14.02;;
54921;SDS011;40824;45.116;21.296;2023-02-19T13:33:40;21.42;;;16.00;;
54921;SDS011;40824;45.116;21.296;2023-02-19T13:36:10;22.23;;;16.02;;
54921;SDS011;40824;45.116;21.296;2023-02-19T13:38:38;20.58;;;16.50;;
54921;SDS011;40824;45.116;21.296;2023-02-19T13:41:04;26.30;;;18.25;;
54921;SDS011;40824;45.116;21.296;2023-02-19T13:43:32;25.45;;;17.50;;
54921;SDS011;40824;45.116;21.296;2023-02-19T13:46:03;21.75;;;17.65;;
54921;SDS011;40824;45.116;21.296;2023-02-19T13:48:35;22.27;;;17.02;;
54921;SDS011;40824;45.116;21.296;2023-02-19T14:02:04;25.42;;;15.80;;
54921;SDS011;40824;45.116;21.296;2023-02-19T14:04:07;25.65;;;18.70;;
54921;SDS011;40824;45.116;21.296;2023-02-19T14:12:16;27.50;;;24.60;;
54921;SDS011;40824;45.116;21.296;2023-02-19T14:14:46;22.48;;;15.55;;
54921;SDS011;40824;45.116;21.296;2023-02-19T14:19:49;19.92;;;15.85;;
54921;SDS011;40824;45.116;21.296;2023-02-19T14:24:41;23.88;;;20.20;;
54921;SDS011;40824;45.116;21.296;2023-02-19T14:27:07;29.10;;;21.83;;
54921;SDS011;40824;45.116;21.296;2023-02-19T14:29:35;27.02;;;22.30;;
54921;SDS011;40824;45.116;21.296;2023-02-19T14:32:02;25.38;;;21.30;;
54921;SDS011;40824;45.116;21.296;2023-02-19T14:34:30;22.67;;;19.25;;
54921;SDS011;40824;45.116;21.296;2023-02-19T14:36:57;42.90;;;38.22;;
54921;SDS011;40824;45.116;21.296;2023-02-19T14:39:28;22.40;;;19.08;;
54921;SDS011;40824;45.116;21.296;2023-02-19T14:41:56;36.28;;;29.98;;
54921;SDS011;40824;45.116;21.296;2023-02-19T14:44:23;30.70;;;26.15;;
54921;SDS011;40824;45.116;21.296;2023-02-19T14:49:18;32.95;;;28.48;;
54921;SDS011;40824;45.116;21.296;2023-02-19T14:51:49;41.45;;;31.23;;
54921;SDS011;40824;45.116;21.296;2023-02-19T14:54:21;30.52;;;22.63;;
54921;SDS011;40824;45.116;21.296;2023-02-19T14:56:51;29.83;;;22.25;;
54921;SDS011;40824;45.116;21.296;2023-02-19T14:59:22;34.10;;;25.25;;
54921;SDS011;40824;45.116;21.296;2023-02-19T15:01:58;33.35;;;26.98;;
54921;SDS011;40824;45.116;21.296;2023-02-19T15:04:34;30.00;;;21.85;;
54921;SDS011;40824;45.116;21.296;2023-02-19T15:07:01;38.88;;;29.42;;
54921;SDS011;40824;45.116;21.296;2023-02-19T15:09:31;31.80;;;25.35;;
54921;SDS011;40824;45.116;21.296;2023-02-19T15:11:58;30.45;;;24.42;;
54921;SDS011;40824;45.116;21.296;2023-02-19T15:14:26;34.05;;;27.55;;
54921;SDS011;40824;45.116;21.296;2023-02-19T15:16:58;38.00;;;32.40;;
54921;SDS011;40824;45.116;21.296;2023-02-19T15:19:25;64.75;;;54.08;;
54921;SDS011;40824;45.116;21.296;2023-02-19T15:21:51;40.50;;;34.53;;
54921;SDS011;40824;45.116;21.296;2023-02-19T15:24:19;23.42;;;20.67;;
54921;SDS011;40824;45.116;21.296;2023-02-19T15:26:47;26.83;;;20.42;;
54921;SDS011;40824;45.116;21.296;2023-02-19T15:29:17;24.40;;;20.75;;
54921;SDS011;40824;45.116;21.296;2023-02-19T15:31:54;32.28;;;22.65;;
54921;SDS011;40824;45.116;21.296;2023-02-19T15:34:24;39.88;;;30.95;;
54921;SDS011;40824;45.116;21.296;2023-02-19T15:36:55;38.75;;;29.25;;
54921;SDS011;40824;45.116;21.296;2023-02-19T15:39:22;73.00;;;51.60;;
54921;SDS011;40824;45.116;21.296;2023-02-19T15:41:53;113.93;;;82.15;;
54921;SDS011;40824;45.116;21.296;2023-02-19T15:46:50;42.47;;;31.40;;
54921;SDS011;40824;45.116;21.296;2023-02-19T15:49:18;45.83;;;33.53;;
54921;SDS011;40824;45.116;21.296;2023-02-19T15:51:49;106.18;;;85.03;;
54921;SDS011;40824;45.116;21.296;2023-02-19T15:54:26;55.85;;;46.70;;
54921;SDS011;40824;45.116;21.296;2023-02-19T15:56:56;49.58;;;39.03;;
54921;SDS011;40824;45.116;21.296;2023-02-19T15:59:25;47.35;;;40.78;;
54921;SDS011;40824;45.116;21.296;2023-02-19T16:01:53;56.50;;;49.67;;
54921;SDS011;40824;45.116;21.296;2023-02-19T16:04:21;57.00;;;48.28;;
54921;SDS011;40824;45.116;21.296;2023-02-19T16:06:51;31.13;;;24.55;;
54921;SDS011;40824;45.116;21.296;2023-02-19T16:09:31;22.80;;;19.75;;
54921;SDS011;40824;45.116;21.296;2023-02-19T16:11:58;44.80;;;34.35;;
54921;SDS011;40824;45.116;21.296;2023-02-19T16:14:32;62.05;;;44.28;;
54921;SDS011;40824;45.116;21.296;2023-02-19T16:19:26;44.40;;;33.00;;
54921;SDS011;40824;45.116;21.296;2023-02-19T16:21:54;61.75;;;46.38;;
54921;SDS011;40824;45.116;21.296;2023-02-19T16:24:25;64.55;;;46.22;;
54921;SDS011;40824;45.116;21.296;2023-02-19T16:26:51;58.97;;;41.95;;
54921;SDS011;40824;45.116;21.296;2023-02-19T16:29:28;48.67;;;36.10;;
54921;SDS011;40824;45.116;21.296;2023-02-19T16:31:56;56.45;;;39.70;;
54921;SDS011;40824;45.116;21.296;2023-02-19T16:34:29;51.97;;;38.72;;
54921;SDS011;40824;45.116;21.296;2023-02-19T16:36:55;153.02;;;103.45;;
54921;SDS011;40824;45.116;21.296;2023-02-19T16:39:22;108.32;;;75.78;;
54921;SDS011;40824;45.116;21.296;2023-02-19T16:46:47;226.80;;;133.13;;
54921;SDS011;40824;45.116;21.296;2023-02-19T16:49:13;337.33;;;211.32;;